Time;durP1;ratioP1;P1;durP2;ratioP2;P2;SDS_P1;SDS_P2;PMS_P1;PMS_P2;Temp;Humidity;BMP_temperature;BMP_pressure;BME280_temperature;BME280_humidity;BME280_pressure;Samples;Min_cycle;Max_cycle;Signal;HPM_P1;HPM_P2
2022/12/11 00:02:30;;;;;;;32.47;17.35;;;;;;;2.32;76.23;100752.63;5016865;28;20053;-69
2022/12/11 00:04:58;;;;;;;28.25;15.60;;;;;;;2.34;76.60;100753.19;4997845;28;20046;-69
2022/12/11 00:07:26;;;;;;;27.65;15.25;;;;;;;2.15;77.05;100755.44;5033958;28;20377;-69
2022/12/11 00:09:53;;;;;;;31.80;17.17;;;;;;;2.32;77.46;100747.97;5035759;28;20516;-69
2022/12/11 00:12:21;;;;;;;29.15;15.85;;;;;;;2.47;76.91;100736.44;4998007;28;20058;-71
2022/12/11 00:14:48;;;;;;;26.30;15.05;;;;;;;2.42;76.22;100737.22;5015660;28;20053;-69
2022/12/11 00:17:16;;;;;;;25.02;14.05;;;;;;;2.01;76.35;100730.59;5041789;28;20053;-69
2022/12/11 00:19:43;;;;;;;28.67;14.35;;;;;;;1.92;77.53;100729.41;5055919;28;20065;-71
2022/12/11 00:22:10;;;;;;;24.30;13.18;;;;;;;2.19;76.85;100734.84;5034014;28;20045;-68
2022/12/11 00:24:38;;;;;;;24.38;14.13;;;;;;;1.98;77.01;100727.56;5017785;28;20061;-68
2022/12/11 00:27:05;;;;;;;27.35;15.20;;;;;;;2.16;76.62;100730.72;5029650;28;20053;-70
2022/12/11 00:29:32;;;;;;;28.15;14.20;;;;;;;2.07;76.39;100726.03;5051026;28;20551;-69
2022/12/11 00:32:00;;;;;;;22.98;12.45;;;;;;;2.05;76.67;100718.16;5033852;28;20047;-69
2022/12/11 00:34:27;;;;;;;22.88;13.32;;;;;;;2.31;76.24;100724.63;5035020;28;20060;-69
2022/12/11 00:36:55;;;;;;;26.08;13.85;;;;;;;2.32;76.01;100714.56;5032488;28;20057;-70
2022/12/11 00:39:22;;;;;;;26.33;14.27;;;;;;;2.42;75.69;100720.09;5017985;28;20064;-69
2022/12/11 00:41:53;;;;;;;21.55;13.13;;;;;;;2.42;75.49;100718.19;5041142;28;20052;-69
2022/12/11 00:44:22;;;;;;;23.23;13.20;;;;;;;2.49;75.41;100715.25;5047117;28;20049;-69
2022/12/11 00:46:49;;;;;;;26.55;13.90;;;;;;;2.32;75.67;100718.09;5046745;28;20053;-68
2022/12/11 00:49:17;;;;;;;31.33;15.02;;;;;;;2.31;75.69;100711.03;5037783;28;20067;-70
2022/12/11 00:51:44;;;;;;;25.08;14.70;;;;;;;2.17;76.19;100707.94;5049562;28;20419;-69
2022/12/11 00:54:11;;;;;;;25.08;13.57;;;;;;;2.51;75.47;100704.94;5030668;28;20053;-68
2022/12/11 00:56:39;;;;;;;25.48;14.00;;;;;;;2.68;75.17;100702.88;5017056;28;20076;-68
2022/12/11 00:59:08;;;;;;;24.00;13.43;;;;;;;2.61;74.77;100705.00;5033807;28;20057;-68
2022/12/11 01:01:36;;;;;;;20.67;11.68;;;;;;;2.47;75.01;100709.25;5034023;28;20042;-69
2022/12/11 01:04:03;;;;;;;21.10;10.23;;;;;;;2.36;75.13;100693.94;5050689;28;20504;-69
2022/12/11 01:06:33;;;;;;;20.17;11.10;;;;;;;2.00;74.90;100698.25;5039441;28;20133;-69
2022/12/11 01:11:47;;;;;;;20.30;11.45;;;;;;;2.17;75.21;100697.06;5013018;28;20388;-66
2022/12/11 01:14:14;;;;;;;21.17;12.38;;;;;;;2.17;75.40;100691.63;5050077;28;20397;-66
2022/12/11 01:16:41;;;;;;;23.98;14.75;;;;;;;2.08;75.53;100697.78;5030440;28;20045;-66
2022/12/11 01:19:09;;;;;;;21.90;12.05;;;;;;;2.22;75.55;100694.38;5006696;28;20053;-65
2022/12/11 01:21:36;;;;;;;23.38;13.00;;;;;;;2.33;75.39;100689.84;4999965;28;20377;-66
2022/12/11 01:24:04;;;;;;;24.67;12.88;;;;;;;2.34;75.64;100687.97;5034660;28;20050;-66
2022/12/11 01:26:32;;;;;;;23.10;13.68;;;;;;;2.09;76.17;100697.50;5034177;28;20665;-65
2022/12/11 01:29:00;;;;;;;25.25;13.48;;;;;;;2.09;76.42;100700.22;5026583;28;20053;-65
2022/12/11 01:31:27;;;;;;;22.63;12.73;;;;;;;2.09;76.78;100702.94;5034658;28;20052;-66
2022/12/11 01:33:55;;;;;;;22.30;13.05;;;;;;;2.39;75.91;100693.44;5009749;28;20054;-65
2022/12/11 01:36:23;;;;;;;22.30;13.23;;;;;;;2.27;76.23;100697.13;4996266;28;20060;-65
2022/12/11 01:38:50;;;;;;;21.50;13.18;;;;;;;2.13;76.60;100698.66;5033474;28;20125;-65
2022/12/11 01:41:17;;;;;;;22.73;12.35;;;;;;;2.02;76.55;100696.09;5034217;28;20057;-65
2022/12/11 01:44:04;;;;;;;20.90;11.80;;;;;;;2.12;76.85;100704.34;5034587;28;20072;-65
2022/12/11 01:46:35;;;;;;;24.80;12.53;;;;;;;2.13;76.19;100704.06;5045402;28;20060;-65
2022/12/11 01:49:06;;;;;;;20.48;11.45;;;;;;;2.02;76.13;100704.25;4991360;28;20060;-66
2022/12/11 01:51:42;;;;;;;18.95;12.23;;;;;;;2.04;76.64;100704.81;5016145;28;20041;-65
2022/12/11 01:54:11;;;;;;;20.50;12.43;;;;;;;2.01;76.80;100705.31;5032957;28;20061;-67
2022/12/11 01:56:41;;;;;;;21.83;11.88;;;;;;;2.01;76.46;100718.91;5016413;28;20056;-65
2022/12/11 01:59:09;;;;;;;17.75;11.32;;;;;;;1.78;76.82;100716.50;5020644;28;20054;-66
2022/12/11 02:01:44;;;;;;;20.15;12.18;;;;;;;1.85;77.36;100720.66;5036306;28;20396;-65
2022/12/11 02:04:14;;;;;;;17.38;10.80;;;;;;;1.72;77.80;100712.09;5004442;28;20049;-67
2022/12/11 02:06:43;;;;;;;19.92;11.13;;;;;;;1.43;77.35;100703.34;5037441;28;20041;-66
2022/12/11 02:09:17;;;;;;;18.70;10.43;;;;;;;1.79;76.80;100707.28;5019606;28;20057;-66
2022/12/11 02:12:03;;;;;;;18.38;10.13;;;;;;;1.62;77.12;100706.56;5019774;28;20049;-66
2022/12/11 02:14:52;;;;;;;19.65;10.57;;;;;;;1.31;77.42;100699.94;5038200;28;20060;-66
2022/12/11 02:17:41;;;;;;;16.45;9.77;;;;;;;1.46;77.45;100699.31;5036708;28;20056;-66
2022/12/11 02:20:21;;;;;;;16.25;9.00;;;;;;;1.53;77.54;100697.22;5018559;28;20056;-67
2022/12/11 02:22:54;;;;;;;18.38;9.95;;;;;;;1.68;76.86;100698.22;5000107;28;20042;-67
2022/12/11 02:25:30;;;;;;;19.10;10.05;;;;;;;1.82;76.55;100687.75;5018115;28;20077;-67
2022/12/11 02:28:16;;;;;;;16.42;9.25;;;;;;;1.88;76.26;100687.53;5035612;28;20065;-65
2022/12/11 02:30:49;;;;;;;16.08;9.25;;;;;;;1.88;75.95;100695.69;5015306;28;20508;-65
2022/12/11 02:33:23;;;;;;;17.25;9.55;;;;;;;1.82;76.08;100690.47;4996849;28;20060;-67
2022/12/11 02:35:53;;;;;;;18.73;9.88;;;;;;;2.15;75.49;100685.63;4983285;28;20061;-66
2022/12/11 02:38:28;;;;;;;18.08;10.48;;;;;;;2.05;75.17;100676.56;5019165;28;20061;-66
2022/12/11 02:40:57;;;;;;;17.65;10.30;;;;;;;1.90;76.11;100677.25;5018823;28;20057;-67
2022/12/11 02:43:24;;;;;;;19.90;10.95;;;;;;;1.96;76.00;100678.94;5019489;28;20056;-67
2022/12/11 02:45:52;;;;;;;16.88;10.25;;;;;;;1.95;76.15;100680.00;5021561;28;20390;-66
2022/12/11 02:48:21;;;;;;;20.88;11.05;;;;;;;1.80;77.00;100670.91;5022731;28;20068;-68
2022/12/11 02:50:51;;;;;;;19.60;10.88;;;;;;;1.49;77.47;100667.06;5021019;28;20394;-66
2022/12/11 02:53:25;;;;;;;21.20;11.63;;;;;;;1.70;78.32;100663.50;5020287;28;20635;-67
2022/12/11 02:55:59;;;;;;;19.48;11.15;;;;;;;1.70;77.75;100665.38;5035400;28;20440;-66
2022/12/11 02:58:30;;;;;;;20.40;11.27;;;;;;;1.90;77.37;100666.38;5018786;28;20065;-66
2022/12/11 03:00:57;;;;;;;18.13;9.85;;;;;;;1.89;76.93;100663.94;5018925;28;20056;-66
2022/12/11 03:03:27;;;;;;;15.85;8.43;;;;;;;2.06;75.99;100665.44;5019589;28;20045;-67
2022/12/11 03:05:55;;;;;;;18.98;9.10;;;;;;;2.08;75.86;100657.84;5021231;28;20049;-66
2022/12/11 03:08:22;;;;;;;15.77;9.05;;;;;;;1.96;75.54;100662.66;5036587;28;20049;-66
2022/12/11 03:10:49;;;;;;;17.85;9.43;;;;;;;1.69;75.94;100661.03;5034563;28;20477;-65
2022/12/11 03:13:19;;;;;;;18.92;10.20;;;;;;;1.72;76.92;100660.50;5037113;28;20049;-66
2022/12/11 03:16:04;;;;;;;19.58;9.75;;;;;;;1.70;76.93;100663.50;5018220;28;20053;-66
2022/12/11 03:18:47;;;;;;;18.08;9.88;;;;;;;1.39;77.86;100666.13;5036794;28;20053;-68
2022/12/11 03:21:26;;;;;;;15.75;9.40;;;;;;;1.36;78.12;100664.72;5038563;28;20057;-68
2022/12/11 03:23:53;;;;;;;16.23;8.95;;;;;;;1.46;77.91;100661.31;5039087;28;20411;-68
2022/12/11 03:26:22;;;;;;;15.60;8.85;;;;;;;1.54;77.98;100658.16;5036027;28;20408;-68
2022/12/11 03:28:59;;;;;;;16.42;8.20;;;;;;;1.43;77.33;100661.84;5025265;28;20046;-68
2022/12/11 03:31:42;;;;;;;15.77;8.32;;;;;;;1.08;77.86;100664.97;5004972;28;20049;-69
2022/12/11 03:34:18;;;;;;;12.43;7.93;;;;;;;1.09;78.32;100659.28;4998700;28;20053;-69
2022/12/11 03:36:46;;;;;;;13.20;7.22;;;;;;;0.90;78.76;100652.53;5029447;28;20038;-69
2022/12/11 03:39:32;;;;;;;13.98;7.35;;;;;;;1.13;78.35;100649.56;5036015;28;20045;-69
2022/12/11 03:42:02;;;;;;;15.93;8.48;;;;;;;1.02;78.95;100655.94;5018847;28;20136;-68
2022/12/11 03:44:31;;;;;;;12.98;7.70;;;;;;;1.11;78.53;100654.44;5013230;28;20076;-68
2022/12/11 03:47:00;;;;;;;13.15;7.95;;;;;;;1.19;78.38;100655.06;5017622;28;20060;-68
2022/12/11 03:49:31;;;;;;;16.88;8.60;;;;;;;1.09;78.45;100651.16;5017004;28;20049;-69
2022/12/11 03:51:59;;;;;;;15.55;8.65;;;;;;;1.06;78.68;100650.84;5010811;28;20049;-68
2022/12/11 03:54:26;;;;;;;16.63;9.45;;;;;;;1.00;79.28;100651.84;5034691;28;20053;-68
2022/12/11 03:56:56;;;;;;;17.10;9.18;;;;;;;0.66;79.70;100653.03;5017097;28;20061;-69
2022/12/11 03:59:23;;;;;;;18.52;9.68;;;;;;;0.70;80.45;100641.41;5034934;28;20056;-68
2022/12/11 04:01:51;;;;;;;15.98;8.73;;;;;;;0.69;80.69;100647.09;5008475;28;20050;-68
2022/12/11 04:04:19;;;;;;;16.05;8.48;;;;;;;0.78;79.98;100645.59;5015884;28;20057;-68
2022/12/11 04:06:46;;;;;;;16.40;8.93;;;;;;;0.71;80.08;100648.50;5040224;28;20057;-69
2022/12/11 04:09:14;;;;;;;16.15;9.02;;;;;;;1.02;79.65;100652.41;5028461;28;20054;-68
2022/12/11 04:11:41;;;;;;;17.10;8.07;;;;;;;0.94;79.53;100655.56;5019267;28;20053;-68
2022/12/11 04:17:00;;;;;;;15.70;8.35;;;;;;;0.88;79.14;100643.00;5038342;28;20494;-68
2022/12/11 04:25:03;;;;;;;17.42;7.97;;;;;;;0.88;79.34;100640.28;5053661;28;20064;-67
2022/12/11 04:27:49;;;;;;;;;;;;;;;0.90;79.41;100636.28;5035705;28;20726;-69
2022/12/11 04:30:20;;;;;;;17.55;8.27;;;;;;;0.98;79.34;100638.53;5046379;28;19925;-67
2022/12/11 04:32:48;;;;;;;13.80;7.72;;;;;;;1.04;79.07;100637.53;5014327;28;20068;-68
2022/12/11 04:35:15;;;;;;;14.75;7.22;;;;;;;1.19;78.17;100628.72;4998147;28;20049;-68
2022/12/11 04:37:43;;;;;;;16.00;8.25;;;;;;;1.29;78.22;100628.03;5000562;28;20075;-69
2022/12/11 04:40:13;;;;;;;16.42;8.90;;;;;;;1.32;78.32;100625.63;5050520;28;20121;-69
2022/12/11 04:42:41;;;;;;;15.73;7.97;;;;;;;1.38;77.91;100621.88;5019951;28;20104;-68
2022/12/11 04:45:09;;;;;;;18.70;8.40;;;;;;;1.06;77.82;100627.22;5022944;28;20051;-68
2022/12/11 04:47:38;;;;;;;16.42;8.65;;;;;;;1.03;79.24;100626.91;5034599;28;20441;-69
2022/12/11 04:50:08;;;;;;;16.15;9.13;;;;;;;0.85;79.49;100621.81;5034996;28;20062;-69
2022/12/11 04:52:35;;;;;;;15.75;8.70;;;;;;;0.82;79.89;100620.44;5034475;28;20072;-69
2022/12/11 04:55:04;;;;;;;14.32;7.65;;;;;;;0.96;78.90;100618.16;5035174;28;20049;-69
2022/12/11 04:57:32;;;;;;;15.73;8.60;;;;;;;1.06;78.76;100610.16;5036727;28;20049;-68
2022/12/11 05:00:00;;;;;;;15.45;8.55;;;;;;;0.86;79.18;100609.91;5043648;28;20048;-69
2022/12/11 05:02:28;;;;;;;14.63;7.90;;;;;;;0.77;79.76;100606.81;5034156;28;20045;-69
2022/12/11 05:04:55;;;;;;;14.38;8.68;;;;;;;0.90;79.67;100613.75;5054726;28;20049;-68
2022/12/11 05:07:23;;;;;;;19.60;8.98;;;;;;;0.81;79.99;100609.84;5054406;28;20053;-68
2022/12/11 05:09:50;;;;;;;17.23;9.32;;;;;;;1.01;79.25;100610.09;5036106;28;20409;-69
2022/12/11 05:12:17;;;;;;;18.23;9.15;;;;;;;1.03;78.79;100597.91;5053891;28;20045;-68
2022/12/11 05:14:45;;;;;;;15.80;9.20;;;;;;;0.85;78.92;100602.84;5030362;28;20064;-68
2022/12/11 05:17:12;;;;;;;15.35;8.80;;;;;;;0.72;79.88;100608.63;5049695;28;20053;-68
2022/12/11 05:19:40;;;;;;;20.02;9.43;;;;;;;0.66;80.49;100605.03;5054511;28;20492;-67
2022/12/11 05:22:07;;;;;;;22.27;9.70;;;;;;;0.47;80.73;100600.97;5054064;28;20048;-68
2022/12/11 05:24:34;;;;;;;18.50;9.98;;;;;;;0.64;81.24;100592.81;5036786;28;20087;-68
2022/12/11 05:27:01;;;;;;;19.75;10.45;;;;;;;0.81;80.48;100597.13;5036064;28;20127;-69
2022/12/11 05:29:29;;;;;;;18.25;9.88;;;;;;;0.66;80.42;100599.59;5031325;28;20133;-69
2022/12/11 05:31:56;;;;;;;19.08;10.00;;;;;;;0.91;80.21;100601.81;5050271;28;20057;-70
2022/12/11 05:34:23;;;;;;;17.27;9.88;;;;;;;0.99;80.18;100604.09;5040155;28;20056;-68
2022/12/11 05:36:51;;;;;;;19.92;9.88;;;;;;;1.13;78.99;100600.72;5036298;28;20060;-69
2022/12/11 05:39:18;;;;;;;17.02;9.15;;;;;;;0.98;78.99;100608.69;5038258;28;20056;-70
2022/12/11 05:41:46;;;;;;;17.67;9.00;;;;;;;0.97;79.16;100595.41;5039905;28;20065;-70
2022/12/11 05:44:13;;;;;;;18.05;9.60;;;;;;;1.02;78.89;100601.72;5032539;28;20046;-68
2022/12/11 05:46:40;;;;;;;16.20;8.48;;;;;;;0.82;78.13;100598.75;5038443;28;20049;-68
2022/12/11 05:49:09;;;;;;;15.85;9.05;;;;;;;1.12;78.12;100595.56;5023737;28;20045;-67
2022/12/11 05:51:38;;;;;;;15.43;8.63;;;;;;;1.13;77.36;100599.94;5028594;28;20103;-67
2022/12/11 05:54:06;;;;;;;16.58;8.90;;;;;;;1.35;77.02;100598.00;5018264;28;20046;-70
2022/12/11 05:56:33;;;;;;;16.52;8.73;;;;;;;1.35;76.92;100592.56;5027044;28;20049;-69
2022/12/11 05:59:02;;;;;;;17.05;9.38;;;;;;;1.04;77.40;100596.03;5036309;28;20434;-69
2022/12/11 06:01:40;;;;;;;17.48;9.63;;;;;;;0.87;78.11;100600.72;5035004;28;20049;-69
2022/12/11 06:04:09;;;;;;;20.27;10.18;;;;;;;1.07;78.61;100600.94;5037286;28;20049;-69
2022/12/11 06:06:39;;;;;;;20.40;10.57;;;;;;;1.03;78.88;100608.75;5029544;28;20049;-68
2022/12/11 06:09:06;;;;;;;24.98;11.88;;;;;;;0.88;78.85;100603.16;5036774;28;20061;-69
2022/12/11 06:11:34;;;;;;;22.23;11.48;;;;;;;0.98;78.77;100589.72;5027430;28;20056;-69
2022/12/11 06:14:02;;;;;;;19.90;10.38;;;;;;;0.97;79.50;100595.41;5036405;28;20050;-68
2022/12/11 06:16:30;;;;;;;20.98;10.68;;;;;;;1.04;78.68;100591.44;5040488;28;20044;-68
2022/12/11 06:18:58;;;;;;;21.30;10.45;;;;;;;0.93;78.81;100586.13;5039676;28;20049;-69
2022/12/11 06:21:32;;;;;;;21.42;11.02;;;;;;;1.10;78.30;100590.41;5006874;28;20493;-68
2022/12/11 06:24:02;;;;;;;23.80;11.50;;;;;;;0.78;78.33;100594.09;5017578;28;20041;-69
2022/12/11 06:26:30;;;;;;;;;;;;;;;0.97;79.00;100585.38;5027544;28;20481;-68
2022/12/11 06:28:58;;;;;;;21.98;11.32;;;;;;;0.95;79.07;100579.38;5035087;28;19920;-68
2022/12/11 06:31:26;;;;;;;20.50;11.77;;;;;;;0.91;78.27;100572.00;5050559;28;20060;-68
2022/12/11 06:33:53;;;;;;;20.95;11.70;;;;;;;0.85;77.84;100571.16;5035692;28;20053;-69
2022/12/11 06:36:23;;;;;;;22.13;12.07;;;;;;;0.89;78.20;100569.53;5032444;28;20062;-68
2022/12/11 06:38:51;;;;;;;22.52;13.07;;;;;;;0.90;79.13;100573.09;5034206;28;20497;-68
2022/12/11 06:41:18;;;;;;;23.17;13.35;;;;;;;1.16;77.97;100572.28;5033929;28;20508;-67
2022/12/11 06:43:46;;;;;;;23.83;12.82;;;;;;;0.82;78.81;100568.13;5035205;28;20038;-68
2022/12/11 06:46:18;;;;;;;26.08;14.02;;;;;;;0.74;80.19;100573.97;5044983;28;20049;-68
2022/12/11 06:48:45;;;;;;;28.63;14.95;;;;;;;0.90;78.83;100571.19;5038765;28;20619;-69
2022/12/11 06:51:15;;;;;;;29.05;13.88;;;;;;;0.92;79.28;100560.09;5053877;28;20041;-70
2022/12/11 06:53:43;;;;;;;33.53;17.33;;;;;;;1.11;78.68;100555.97;5055529;28;20056;-69
2022/12/11 06:56:13;;;;;;;33.50;16.85;;;;;;;0.94;78.38;100564.19;5022368;28;20051;-68
2022/12/11 06:58:42;;;;;;;31.65;17.23;;;;;;;0.61;79.78;100572.44;5033483;28;20071;-68
2022/12/11 07:01:18;;;;;;;33.38;17.75;;;;;;;0.71;80.13;100569.88;5025139;28;20041;-69
2022/12/11 07:03:46;;;;;;;35.88;18.48;;;;;;;0.60;79.96;100570.00;5023763;28;20050;-69
2022/12/11 07:06:14;;;;;;;36.00;18.20;;;;;;;0.72;80.04;100574.22;5023973;28;20056;-69
2022/12/11 07:08:42;;;;;;;39.05;19.92;;;;;;;0.73;80.27;100564.22;5036988;28;20061;-69
2022/12/11 07:11:11;;;;;;;41.60;20.70;;;;;;;0.61;80.25;100564.31;5038900;28;20144;-69
2022/12/11 07:13:40;;;;;;;38.53;19.65;;;;;;;0.92;80.06;100566.31;5056748;28;20053;-69
2022/12/11 07:16:10;;;;;;;37.72;20.63;;;;;;;1.00;79.38;100573.19;5054802;28;20052;-69
2022/12/11 07:18:42;;;;;;;38.38;19.60;;;;;;;1.03;78.72;100568.09;5010044;28;20053;-67
2022/12/11 07:21:11;;;;;;;40.15;20.33;;;;;;;1.03;78.10;100570.78;5026288;28;20052;-68
2022/12/11 07:23:40;;;;;;;37.85;20.48;;;;;;;1.32;77.81;100570.56;5056277;28;20041;-70
2022/12/11 07:26:10;;;;;;;41.13;21.15;;;;;;;1.11;76.89;100572.25;5054506;28;20519;-69
2022/12/11 07:28:38;;;;;;;39.50;21.40;;;;;;;1.18;76.84;100578.28;5054946;28;20131;-68
2022/12/11 07:31:08;;;;;;;40.15;21.75;;;;;;;0.87;78.01;100581.72;5055027;28;20053;-68
2022/12/11 07:33:35;;;;;;;42.78;22.52;;;;;;;1.05;77.49;100579.50;4995350;28;20084;-68
2022/12/11 07:36:07;;;;;;;39.88;21.67;;;;;;;1.23;76.73;100585.63;5030853;28;20068;-69
2022/12/11 07:38:34;;;;;;;41.50;21.15;;;;;;;1.29;76.55;100584.63;5038051;28;20055;-67
2022/12/11 07:41:04;;;;;;;40.92;22.73;;;;;;;1.15;76.43;100592.38;5043615;28;20044;-67
2022/12/11 07:43:35;;;;;;;42.45;23.08;;;;;;;1.00;77.06;100595.72;5020904;28;20046;-68
2022/12/11 07:46:11;;;;;;;42.65;23.15;;;;;;;1.36;76.47;100587.97;5038097;28;20049;-69
2022/12/11 07:48:40;;;;;;;44.88;24.05;;;;;;;1.59;75.79;100582.19;5034355;28;20052;-68
2022/12/11 07:51:11;;;;;;;39.70;22.77;;;;;;;1.41;75.50;100586.13;5009798;28;20049;-68
2022/12/11 07:53:38;;;;;;;44.45;24.05;;;;;;;1.41;75.77;100588.00;5055995;28;20349;-68
2022/12/11 07:56:06;;;;;;;45.80;25.23;;;;;;;1.45;75.59;100581.00;5053286;28;20037;-68
2022/12/11 07:58:34;;;;;;;44.75;23.42;;;;;;;1.49;75.69;100579.41;5033721;28;20053;-72
2022/12/11 08:01:02;;;;;;;44.42;24.17;;;;;;;1.11;76.07;100577.66;5042890;28;20522;-69
2022/12/11 08:03:29;;;;;;;44.90;24.27;;;;;;;1.20;77.20;100578.03;5038438;28;20059;-69
2022/12/11 08:05:57;;;;;;;39.63;23.00;;;;;;;1.19;75.64;100574.47;5055818;28;20040;-69
2022/12/11 08:08:24;;;;;;;43.88;23.23;;;;;;;1.02;76.54;100576.47;5055568;28;20053;-69
2022/12/11 08:10:52;;;;;;;42.40;24.33;;;;;;;1.25;76.25;100583.50;5037304;28;20049;-69
2022/12/11 08:13:19;;;;;;;40.67;23.50;;;;;;;0.94;75.94;100591.28;4997371;28;20065;-70
2022/12/11 08:15:47;;;;;;;36.65;21.45;;;;;;;0.88;76.35;100586.91;5025202;28;20037;-69
2022/12/11 08:18:15;;;;;;;36.22;20.85;;;;;;;1.27;75.86;100584.91;5055437;28;20053;-70
2022/12/11 08:20:42;;;;;;;49.10;27.83;;;;;;;1.02;75.19;100593.56;5054785;28;20048;-70
2022/12/11 08:23:10;;;;;;;42.25;23.35;;;;;;;1.25;75.21;100592.47;5054270;28;20045;-68
2022/12/11 08:25:38;;;;;;;41.30;22.90;;;;;;;0.94;75.72;100594.00;5035985;28;20627;-68
2022/12/11 08:28:05;;;;;;;44.97;23.95;;;;;;;0.73;75.46;100599.44;5017378;28;20053;-69
2022/12/11 08:30:32;;;;;;;44.85;24.52;;;;;;;0.98;76.25;100594.31;5037775;28;20396;-69
2022/12/11 08:33:00;;;;;;;39.65;21.10;;;;;;;1.15;75.32;100586.94;5055079;28;20060;-70
2022/12/11 08:35:27;;;;;;;34.90;20.60;;;;;;;1.19;75.09;100587.25;5054457;28;20033;-70
2022/12/11 08:37:55;;;;;;;39.55;21.05;;;;;;;0.96;74.97;100591.03;5037032;28;20060;-69
2022/12/11 08:40:22;;;;;;;36.15;20.25;;;;;;;1.13;75.25;100594.50;5052046;28;20053;-68
2022/12/11 08:42:51;;;;;;;39.05;20.83;;;;;;;1.12;74.81;100590.97;5055134;28;20045;-69
2022/12/11 08:45:18;;;;;;;36.17;19.45;;;;;;;1.13;74.20;100591.78;5039886;28;20493;-68
2022/12/11 08:47:45;;;;;;;35.28;18.85;;;;;;;1.22;73.90;100592.94;5054985;28;20728;-68
2022/12/11 08:50:13;;;;;;;30.90;17.67;;;;;;;1.11;73.91;100602.91;5036561;28;20468;-68
2022/12/11 08:52:43;;;;;;;33.60;18.23;;;;;;;1.21;73.58;100587.78;5054575;28;20037;-68
2022/12/11 08:55:10;;;;;;;37.97;18.35;;;;;;;1.14;73.85;100596.97;5031561;28;20057;-69
2022/12/11 08:57:38;;;;;;;34.72;18.90;;;;;;;1.02;73.80;100590.88;4998786;28;20077;-69
2022/12/11 09:00:08;;;;;;;33.28;18.85;;;;;;;1.11;73.82;100586.63;5017016;28;20111;-69
2022/12/11 09:02:35;;;;;;;32.60;18.17;;;;;;;1.15;74.07;100586.94;5054578;28;20053;-69
2022/12/11 09:05:06;;;;;;;32.85;18.20;;;;;;;1.34;74.99;100581.97;5036803;28;20053;-69
2022/12/11 09:07:36;;;;;;;36.30;19.40;;;;;;;1.61;76.03;100582.75;5032292;28;20042;-71
2022/12/11 09:10:05;;;;;;;35.05;18.38;;;;;;;1.79;76.45;100580.50;5033848;28;20060;-70
2022/12/11 09:12:35;;;;;;;30.83;17.05;;;;;;;2.83;78.56;100575.97;5011195;28;20062;-68
2022/12/11 09:15:03;;;;;;;47.22;26.33;;;;;;;3.36;77.68;100578.28;5027306;28;20046;-67
2022/12/11 09:17:34;;;;;;;37.15;21.27;;;;;;;2.29;70.16;100583.56;5012895;28;20066;-71
2022/12/11 09:20:04;;;;;;;30.88;17.60;;;;;;;2.02;70.55;100588.25;5015692;28;20516;-67
2022/12/11 09:22:32;;;;;;;31.23;18.23;;;;;;;1.74;70.98;100596.75;5029675;28;20061;-68
2022/12/11 09:24:59;;;;;;;34.22;18.65;;;;;;;1.45;71.75;100592.66;5029269;28;20504;-66
2022/12/11 09:27:29;;;;;;;35.60;18.88;;;;;;;1.71;72.01;100588.28;4989532;28;20657;-65
2022/12/11 09:29:56;;;;;;;31.80;18.17;;;;;;;1.67;72.05;100588.00;5017983;28;20049;-62
2022/12/11 09:32:23;;;;;;;44.13;18.42;;;;;;;1.57;72.05;100593.31;5014048;28;20049;-65
2022/12/11 09:34:51;;;;;;;32.33;17.38;;;;;;;1.22;71.92;100595.66;4990325;28;20058;-66
2022/12/11 09:37:18;;;;;;;33.65;18.25;;;;;;;1.42;72.21;100597.78;5022657;28;20068;-68
2022/12/11 09:39:45;;;;;;;34.95;17.52;;;;;;;1.58;72.17;100603.09;5017422;28;20050;-66
2022/12/11 09:42:34;;;;;;;31.67;16.55;;;;;;;1.68;71.28;100605.91;5018107;28;20422;-67
2022/12/11 09:45:03;;;;;;;28.15;15.73;;;;;;;1.41;71.63;100602.41;5019366;28;20040;-66
2022/12/11 09:47:42;;;;;;;28.38;15.60;;;;;;;1.35;71.61;100602.59;5023527;28;20049;-68
2022/12/11 09:50:09;;;;;;;28.35;15.90;;;;;;;0.86;72.05;100599.06;5003837;28;20068;-68
2022/12/11 09:52:37;;;;;;;30.55;17.00;;;;;;;0.99;72.92;100606.81;5017949;28;20046;-67
2022/12/11 09:55:23;;;;;;;29.17;16.60;;;;;;;1.02;72.97;100611.72;4993108;28;20046;-68
2022/12/11 09:58:15;;;;;;;30.73;17.17;;;;;;;1.00;73.27;100611.97;5019500;28;20054;-68
2022/12/11 10:00:50;;;;;;;31.98;17.00;;;;;;;0.96;73.43;100608.13;5004326;28;20050;-68
2022/12/11 10:03:23;;;;;;;30.40;17.00;;;;;;;0.91;73.27;100605.38;5018807;28;20079;-68
2022/12/11 10:06:28;;;;;;;34.80;17.02;;;;;;;0.88;74.21;100608.59;5003474;28;20397;-67
2022/12/11 10:09:17;;;;;;;30.15;17.83;;;;;;;1.13;73.32;100608.06;5026683;28;20058;-69
2022/12/11 10:12:14;;;;;;;29.98;16.60;;;;;;;1.29;73.36;100604.44;5022705;28;20384;-69
2022/12/11 10:15:23;;;;;;;29.13;16.73;;;;;;;1.43;73.08;100610.28;4996772;28;20496;-69
2022/12/11 10:17:53;;;;;;;31.73;17.48;;;;;;;1.68;72.45;100603.19;5027071;28;20053;-68
2022/12/11 10:20:28;;;;;;;31.38;16.73;;;;;;;1.73;71.40;100611.38;5007693;28;20053;-69
2022/12/11 10:22:56;;;;;;;31.25;16.70;;;;;;;1.71;71.22;100599.94;5033582;28;20051;-69
2022/12/11 10:25:29;;;;;;;26.45;15.27;;;;;;;1.62;70.98;100593.34;5009062;28;20042;-69
2022/12/11 10:27:56;;;;;;;28.77;15.65;;;;;;;1.33;71.08;100592.00;5012775;28;20049;-69
2022/12/11 10:30:25;;;;;;;30.58;15.60;;;;;;;1.44;71.90;100590.19;4993834;28;20654;-69
2022/12/11 10:33:23;;;;;;;32.17;15.88;;;;;;;1.24;71.93;100585.38;4993730;28;20053;-69
2022/12/11 10:35:53;;;;;;;28.27;15.63;;;;;;;1.48;71.38;100588.63;4980934;28;20050;-70
2022/12/11 10:38:29;;;;;;;30.95;15.90;;;;;;;1.38;70.60;100586.63;5011679;28;20054;-68
2022/12/11 10:41:00;;;;;;;27.70;15.38;;;;;;;1.17;71.18;100582.88;5016903;28;20046;-69
2022/12/11 10:43:36;;;;;;;30.55;17.05;;;;;;;1.14;71.32;100579.84;5006068;28;20050;-70
2022/12/11 10:46:04;;;;;;;28.08;15.85;;;;;;;1.24;71.21;100585.38;5016850;28;20501;-68
2022/12/11 10:48:32;;;;;;;35.88;20.15;;;;;;;1.45;71.58;100570.16;5018703;28;20397;-69
2022/12/11 10:51:05;;;;;;;33.22;16.15;;;;;;;1.42;71.18;100574.19;5019689;28;20049;-69
2022/12/11 10:53:33;;;;;;;33.33;17.17;;;;;;;1.34;71.04;100573.81;5000388;28;20049;-69
2022/12/11 10:56:01;;;;;;;28.83;15.65;;;;;;;1.47;71.33;100574.22;5008145;28;20052;-66
2022/12/11 10:58:33;;;;;;;32.15;16.38;;;;;;;1.43;71.15;100570.38;5017717;28;20053;-70
2022/12/11 11:01:14;;;;;;;27.77;16.23;;;;;;;1.31;71.21;100564.28;5007695;28;20054;-67
2022/12/11 11:04:02;;;;;;;31.40;16.92;;;;;;;1.77;70.96;100552.78;5013924;28;20057;-68
2022/12/11 11:06:29;;;;;;;31.92;17.50;;;;;;;1.59;71.21;100564.03;5025475;28;20061;-66
2022/12/11 11:08:59;;;;;;;32.47;16.95;;;;;;;1.90;71.14;100546.88;5012165;28;20555;-64
2022/12/11 11:11:35;;;;;;;35.25;17.65;;;;;;;1.59;71.13;100549.63;5021522;28;20540;-66
2022/12/11 11:14:24;;;;;;;32.17;17.67;;;;;;;1.78;70.88;100546.25;5019403;28;20046;-67
2022/12/11 11:16:55;;;;;;;31.02;17.40;;;;;;;1.87;70.60;100533.84;5032048;28;20049;-66
2022/12/11 11:19:27;;;;;;;33.55;17.52;;;;;;;2.06;69.78;100545.09;5033231;28;20049;-69
2022/12/11 11:21:57;;;;;;;31.88;17.92;;;;;;;2.11;69.48;100537.81;5014261;28;20057;-64
2022/12/11 11:24:47;;;;;;;30.85;17.33;;;;;;;2.02;70.00;100539.38;5020410;28;20049;-64
2022/12/11 11:27:35;;;;;;;29.60;17.30;;;;;;;2.22;69.05;100542.22;5028696;28;20061;-64
2022/12/11 11:30:07;;;;;;;32.67;18.10;;;;;;;2.27;68.31;100541.41;5027864;28;20052;-62
2022/12/11 11:32:38;;;;;;;31.80;17.75;;;;;;;2.34;68.31;100536.56;5003048;28;20056;-62
2022/12/11 11:35:10;;;;;;;34.45;18.10;;;;;;;2.01;67.96;100531.47;5010861;28;20049;-63
2022/12/11 11:37:47;;;;;;;34.63;18.65;;;;;;;2.16;68.21;100529.69;5017027;28;20050;-63
2022/12/11 11:40:18;;;;;;;30.25;16.88;;;;;;;1.97;69.04;100531.19;5000500;28;20054;-61
2022/12/11 11:43:10;;;;;;;30.40;17.20;;;;;;;2.30;68.53;100525.41;5031267;28;20045;-63
2022/12/11 11:45:43;;;;;;;33.10;18.13;;;;;;;2.37;67.73;100524.38;5016912;28;20054;-62
2022/12/11 11:48:38;;;;;;;27.65;16.73;;;;;;;2.62;67.68;100527.19;5007375;28;20050;-62